createdAt,value
2022-09-25T00:01:38.969Z,12.48
2022-09-25T00:06:41.498Z,12.49
2022-09-25T00:11:43.154Z,12.46
2022-09-25T00:16:44.863Z,12.46
2022-09-25T00:21:48.714Z,12.43
2022-09-25T00:26:50.413Z,12.45
2022-09-25T00:31:52.340Z,12.39
2022-09-25T00:36:53.964Z,12.40
2022-09-25T00:41:55.600Z,12.37
2022-09-25T00:46:57.435Z,12.37
2022-09-25T00:52:06.303Z,12.37
2022-09-25T00:57:10.038Z,12.39
2022-09-25T01:02:14.627Z,12.39
2022-09-25T01:07:16.770Z,12.41
2022-09-25T01:12:18.444Z,12.41
2022-09-25T01:17:28.287Z,12.39
2022-09-25T01:23:04.530Z,12.38
2022-09-25T01:28:36.930Z,12.41
2022-09-25T01:33:43.864Z,12.41
2022-09-25T01:38:47.427Z,12.41
2022-09-25T01:44:03.996Z,12.37
2022-09-25T01:49:08.225Z,12.42
2022-09-25T01:54:11.939Z,12.43
2022-09-25T01:59:35.610Z,12.42
2022-09-25T02:04:38.745Z,12.40
2022-09-25T02:09:54.869Z,12.43
2022-09-25T02:15:02.069Z,12.39
2022-09-25T02:20:22.867Z,12.40
2022-09-25T02:25:40.031Z,12.40
2022-09-25T02:30:41.779Z,12.35
2022-09-25T02:35:43.454Z,12.35
2022-09-25T02:41:02.254Z,12.33
2022-09-25T02:46:13.595Z,12.45
2022-09-25T02:51:40.859Z,12.46
2022-09-25T02:56:49.083Z,12.48
2022-09-25T03:01:50.816Z,12.59
2022-09-25T03:06:52.588Z,12.58
2022-09-25T03:11:55.070Z,12.45
2022-09-25T03:16:57.540Z,12.51
2022-09-25T03:21:59.234Z,12.51
2022-09-25T03:27:00.862Z,12.56
2022-09-25T03:32:02.890Z,12.46
2022-09-25T03:37:05.040Z,12.44
2022-09-25T03:42:06.675Z,12.43
2022-09-25T03:47:08.279Z,12.41
2022-09-25T03:52:14.511Z,12.40
2022-09-25T03:57:16.146Z,12.33
2022-09-25T04:02:17.821Z,12.30
2022-09-25T04:07:19.467Z,12.34
2022-09-25T04:12:21.274Z,12.31
2022-09-25T04:17:22.886Z,12.29
2022-09-25T04:22:24.680Z,12.25
2022-09-25T04:27:27.816Z,12.21
2022-09-25T04:32:48.050Z,12.12
2022-09-25T04:37:49.719Z,12.08
2022-09-25T04:42:58.043Z,12.11
2022-09-25T04:48:00.048Z,12.07
2022-09-25T04:53:01.714Z,11.95
2022-09-25T04:58:03.337Z,12.05
2022-09-25T05:03:05.123Z,12.07
2022-09-25T05:08:07.375Z,12.06
2022-09-25T05:13:11.121Z,12.08
2022-09-25T05:18:17.504Z,12.11
2022-09-25T05:23:19.195Z,12.12
2022-09-25T05:28:20.826Z,12.11
2022-09-25T05:33:22.500Z,12.09
2022-09-25T05:38:24.127Z,12.08
2022-09-25T05:43:26.010Z,12.19
2022-09-25T05:48:27.664Z,12.18
2022-09-25T05:53:30.531Z,12.14
2022-09-25T05:58:33.669Z,12.15
2022-09-25T06:03:36.054Z,12.18
2022-09-25T06:08:37.681Z,12.20
2022-09-25T06:13:39.312Z,12.31
2022-09-25T06:18:40.933Z,12.03
2022-09-25T06:23:44.844Z,12.05
2022-09-25T06:28:46.567Z,12.01
2022-09-25T06:33:50.734Z,11.98
2022-09-25T06:38:55.722Z,12.01
2022-09-25T06:43:57.345Z,11.99
2022-09-25T06:48:58.995Z,12.01
2022-09-25T06:54:00.689Z,12.07
2022-09-25T06:59:02.363Z,12.07
2022-09-25T07:04:04.440Z,12.12
2022-09-25T07:09:06.206Z,12.13
2022-09-25T07:14:09.460Z,12.13
2022-09-25T07:19:11.097Z,12.16
2022-09-25T07:24:12.866Z,12.14
2022-09-25T07:29:14.523Z,12.20
2022-09-25T07:34:16.350Z,12.19
2022-09-25T07:39:18.803Z,12.12
2022-09-25T07:44:29.507Z,12.15
2022-09-25T07:49:34.896Z,12.11
2022-09-25T07:54:37.660Z,12.10
2022-09-25T07:59:39.288Z,12.14
2022-09-25T08:04:40.998Z,12.07
2022-09-25T08:09:42.708Z,12.10
2022-09-25T08:14:44.331Z,12.16
2022-09-25T08:19:46.221Z,12.25
2022-09-25T08:24:49.223Z,12.29
2022-09-25T08:29:50.914Z,12.35
2022-09-25T08:34:52.872Z,12.43
2022-09-25T08:39:54.532Z,12.52
2022-09-25T08:45:21.449Z,12.53
2022-09-25T08:50:24.548Z,12.64
2022-09-25T08:55:49.005Z,12.61
2022-09-25T09:00:54.509Z,12.52
2022-09-25T09:05:59.286Z,12.59
2022-09-25T09:11:18.731Z,12.60
2022-09-25T09:16:26.967Z,12.53
2022-09-25T09:21:38.996Z,12.59
2022-09-25T09:26:52.665Z,12.48
2022-09-25T09:32:16.627Z,12.41
2022-09-25T09:37:22.894Z,12.53
2022-09-25T09:42:44.391Z,12.43
2022-09-25T09:48:04.038Z,12.49
2022-09-25T09:53:40.276Z,12.60
2022-09-25T09:58:50.508Z,12.52
2022-09-25T10:04:10.683Z,12.51
2022-09-25T10:09:14.665Z,12.58
2022-09-25T10:14:21.752Z,12.69
2022-09-25T10:19:24.930Z,12.86
2022-09-25T10:24:51.247Z,12.80
2022-09-25T10:30:22.357Z,12.93
2022-09-25T10:35:29.657Z,12.93
2022-09-25T10:40:35.895Z,12.91
2022-09-25T10:45:40.588Z,12.94
2022-09-25T10:50:42.927Z,12.97
2022-09-25T10:55:46.229Z,13.01
2022-09-25T11:00:51.597Z,12.97
2022-09-25T11:06:20.813Z,12.86
2022-09-25T11:11:26.872Z,12.86
2022-09-25T11:17:08.203Z,12.77
2022-09-25T11:22:26.539Z,12.94
2022-09-25T11:27:45.167Z,12.99
2022-09-25T11:32:58.719Z,12.98
2022-09-25T11:38:45.147Z,12.95
2022-09-25T11:44:05.920Z,13.03
2022-09-25T11:49:19.041Z,13.17
2022-09-25T11:54:41.203Z,13.22
2022-09-25T12:00:06.982Z,13.31
2022-09-25T12:05:40.732Z,13.28
2022-09-25T12:10:56.405Z,13.30
2022-09-25T12:16:02.688Z,13.35
2022-09-25T12:21:10.544Z,13.45
2022-09-25T12:26:27.341Z,13.56
2022-09-25T12:31:31.476Z,13.47
2022-09-25T12:37:01.451Z,13.53
2022-09-25T12:42:09.955Z,13.64
2022-09-25T12:47:40.393Z,13.57
2022-09-25T12:53:21.582Z,13.36
2022-09-25T12:58:41.436Z,13.39
2022-09-25T13:04:00.914Z,13.38
2022-09-25T13:09:17.265Z,13.31
2022-09-25T13:14:39.905Z,13.24
2022-09-25T13:19:41.683Z,13.31
2022-09-25T13:24:45.208Z,13.45
2022-09-25T13:29:52.335Z,13.54
2022-09-25T13:35:00.397Z,13.65
2022-09-25T13:40:30.724Z,13.73
2022-09-25T13:45:34.237Z,13.76
2022-09-25T13:50:36.756Z,13.77
2022-09-25T13:55:42.439Z,13.75
2022-09-25T14:00:50.455Z,13.84
2022-09-25T14:05:52.442Z,14.06
2022-09-25T14:10:54.822Z,14.18
2022-09-25T14:15:58.454Z,14.16
2022-09-25T14:21:00.290Z,14.28
2022-09-25T14:26:07.273Z,14.53
2022-09-25T14:31:39.711Z,14.60
2022-09-25T14:37:00.427Z,14.52
2022-09-25T14:42:26.659Z,14.22
2022-09-25T14:47:33.770Z,14.09
2022-09-25T14:52:35.694Z,14.02
2022-09-25T14:57:39.586Z,14.13
2022-09-25T15:02:42.490Z,14.41
2022-09-25T15:07:44.527Z,14.54
2022-09-25T15:12:46.215Z,14.67
2022-09-25T15:17:53.296Z,15.07
2022-09-25T15:22:56.913Z,15.48
2022-09-25T15:27:59.314Z,15.82
2022-09-25T15:33:01.316Z,15.64
2022-09-25T15:38:08.242Z,15.73
2022-09-25T15:43:14.076Z,15.78
2022-09-25T15:48:32.832Z,15.91
2022-09-25T15:53:44.873Z,15.73
2022-09-25T15:59:16.751Z,15.56
2022-09-25T16:04:40.473Z,15.52
2022-09-25T16:09:42.099Z,15.30
2022-09-25T16:14:43.755Z,15.13
2022-09-25T16:19:45.401Z,15.17
2022-09-25T16:24:50.803Z,15.12
2022-09-25T16:29:52.516Z,15.06
2022-09-25T16:35:01.322Z,14.95
2022-09-25T16:40:20.699Z,14.78
2022-09-25T16:45:29.390Z,14.68
2022-09-25T16:50:33.310Z,14.56
2022-09-25T16:55:47.345Z,14.41
2022-09-25T17:00:49.615Z,14.30
2022-09-25T17:05:51.308Z,14.24
2022-09-25T17:10:53.039Z,14.18
2022-09-25T17:15:56.566Z,14.09
2022-09-25T17:20:59.665Z,13.96
2022-09-25T17:26:06.562Z,13.87
2022-09-25T17:31:12.403Z,13.76
2022-09-25T17:36:14.235Z,13.65
2022-09-25T17:41:25.964Z,13.50
2022-09-25T17:46:27.735Z,13.38
2022-09-25T17:51:29.938Z,13.21
2022-09-25T17:56:31.633Z,13.15
2022-09-25T18:01:38.866Z,13.12
2022-09-25T18:06:43.442Z,13.04
2022-09-25T18:11:45.235Z,12.95
2022-09-25T18:16:46.939Z,12.82
2022-09-25T18:22:07.265Z,12.73
2022-09-25T18:27:09.147Z,12.65
2022-09-25T18:32:10.840Z,12.60
2022-09-25T18:37:12.662Z,12.51
2022-09-25T18:42:14.458Z,12.47
2022-09-25T18:47:16.214Z,12.46
2022-09-25T18:52:17.907Z,12.42
2022-09-25T18:57:19.564Z,12.39
2022-09-25T19:02:21.267Z,12.22
2022-09-25T19:07:27.230Z,12.25
2022-09-25T19:12:28.994Z,12.20
2022-09-25T19:17:31.100Z,12.00
2022-09-25T19:22:33.511Z,11.99
2022-09-25T19:27:35.336Z,11.81
2022-09-25T19:32:37.422Z,11.66
2022-09-25T19:37:39.195Z,11.51
2022-09-25T19:42:40.840Z,11.45
2022-09-25T19:47:42.522Z,11.36
2022-09-25T19:52:47.665Z,11.32
2022-09-25T19:57:52.970Z,11.33
2022-09-25T20:02:54.682Z,11.34
2022-09-25T20:07:56.412Z,11.31
2022-09-25T20:12:58.154Z,11.21
2022-09-25T20:17:59.910Z,11.12
2022-09-25T20:23:01.599Z,11.07
2022-09-25T20:28:03.298Z,11.05
2022-09-25T20:33:04.913Z,11.03
2022-09-25T20:38:10.974Z,10.97
2022-09-25T20:43:12.763Z,10.95
2022-09-25T20:48:18.050Z,10.84
2022-09-25T20:53:19.689Z,10.60
2022-09-25T20:58:21.371Z,10.45
2022-09-25T21:03:23.009Z,10.43
2022-09-25T21:08:25.770Z,10.31
2022-09-25T21:13:33.902Z,10.25
2022-09-25T21:18:36.041Z,10.32
2022-09-25T21:23:37.662Z,10.28
2022-09-25T21:28:40.413Z,10.22
2022-09-25T21:33:42.200Z,10.18
2022-09-25T21:38:43.836Z,10.16
2022-09-25T21:43:45.632Z,10.13
2022-09-25T21:48:58.092Z,10.12
2022-09-25T21:54:00.938Z,10.06
2022-09-25T21:59:08.723Z,10.03
2022-09-25T22:04:12.292Z,10.03
2022-09-25T22:09:18.883Z,10.01
2022-09-25T22:14:20.606Z,9.96
2022-09-25T22:19:27.047Z,9.85
2022-09-25T22:24:28.728Z,9.79
2022-09-25T22:29:30.835Z,9.75
2022-09-25T22:34:32.473Z,9.71
2022-09-25T22:39:34.107Z,9.67
2022-09-25T22:44:35.734Z,9.61
2022-09-25T22:49:37.368Z,9.55
2022-09-25T22:54:38.980Z,9.50
2022-09-25T22:59:40.591Z,9.45
2022-09-25T23:04:42.382Z,9.40
2022-09-25T23:09:44.150Z,9.36
2022-09-25T23:14:46.209Z,9.33
2022-09-25T23:19:47.881Z,9.15
2022-09-25T23:24:49.526Z,9.09
2022-09-25T23:29:51.149Z,9.05
2022-09-25T23:34:52.775Z,8.94
2022-09-25T23:39:54.400Z,8.90
2022-09-25T23:44:56.372Z,8.85
2022-09-25T23:50:03.505Z,8.82
2022-09-25T23:55:06.515Z,8.74
